createdAt,value
2018-11-06T00:00:28.053Z,8.79
2018-11-06T00:03:02.374Z,8.85
2018-11-06T00:05:31.452Z,8.88
2018-11-06T00:08:01.539Z,8.88
2018-11-06T00:10:30.590Z,8.89
2018-11-06T00:12:59.666Z,8.83
2018-11-06T00:15:28.736Z,8.86
2018-11-06T00:17:57.797Z,8.78
2018-11-06T00:20:26.846Z,8.69
2018-11-06T00:22:55.902Z,8.77
2018-11-06T00:25:24.961Z,8.80
2018-11-06T00:27:54.015Z,8.77
2018-11-06T00:30:23.048Z,8.73
2018-11-06T00:32:52.098Z,8.76
2018-11-06T00:35:21.140Z,8.78
2018-11-06T00:37:50.201Z,8.77
2018-11-06T00:40:19.801Z,8.72
2018-11-06T00:42:48.868Z,8.67
2018-11-06T00:45:17.943Z,8.76
2018-11-06T00:47:47.017Z,8.71
2018-11-06T00:50:16.080Z,8.77
2018-11-06T00:52:45.315Z,8.78
2018-11-06T00:55:14.681Z,8.76
2018-11-06T00:57:44.527Z,8.73
2018-11-06T01:00:16.397Z,8.73
2018-11-06T01:02:45.630Z,8.63
2018-11-06T01:05:15.500Z,8.70
2018-11-06T01:07:47.570Z,8.70
2018-11-06T01:10:16.719Z,8.70
2018-11-06T01:12:45.765Z,8.71
2018-11-06T01:15:16.284Z,8.71
2018-11-06T01:17:46.595Z,8.70
2018-11-06T01:20:17.997Z,8.70
2018-11-06T01:22:47.314Z,8.69
2018-11-06T01:25:16.812Z,8.68
2018-11-06T01:27:46.745Z,8.64
2018-11-06T01:30:18.810Z,8.66
2018-11-06T01:32:48.174Z,8.58
2018-11-06T01:35:17.706Z,8.58
2018-11-06T01:37:49.649Z,8.63
2018-11-06T01:40:19.273Z,8.54
2018-11-06T01:42:48.675Z,8.53
2018-11-06T01:45:18.166Z,8.52
2018-11-06T01:47:47.507Z,8.57
2018-11-06T01:50:17.697Z,8.57
2018-11-06T01:52:47.586Z,8.59
2018-11-06T01:55:16.637Z,8.62
2018-11-06T01:57:45.662Z,8.64
2018-11-06T02:00:16.662Z,8.64
2018-11-06T02:02:45.753Z,8.63
2018-11-06T02:05:15.976Z,8.50
2018-11-06T02:07:46.182Z,8.61
2018-11-06T02:10:16.011Z,8.60
2018-11-06T02:12:47.791Z,8.73
2018-11-06T02:15:16.888Z,8.68
2018-11-06T02:17:46.981Z,8.71
2018-11-06T02:20:16.934Z,8.77
2018-11-06T02:22:46.502Z,8.79
2018-11-06T02:25:15.718Z,8.84
2018-11-06T02:27:44.742Z,8.85
2018-11-06T02:30:15.403Z,8.89
2018-11-06T02:32:45.031Z,8.86
2018-11-06T02:35:14.042Z,8.82
2018-11-06T02:37:43.145Z,8.80
2018-11-06T02:40:14.411Z,8.81
2018-11-06T02:42:43.571Z,8.79
2018-11-06T02:45:13.349Z,8.84
2018-11-06T02:47:42.886Z,8.83
2018-11-06T02:52:41.199Z,8.80
2018-11-06T02:55:10.925Z,8.84
2018-11-06T02:57:40.942Z,8.82
2018-11-06T03:00:12.547Z,8.81
2018-11-06T03:02:41.597Z,8.80
2018-11-06T03:05:10.981Z,8.78
2018-11-06T03:07:40.402Z,8.74
2018-11-06T03:10:10.472Z,8.74
2018-11-06T03:12:40.404Z,8.70
2018-11-06T03:15:10.357Z,8.76
2018-11-06T03:17:39.422Z,8.78
2018-11-06T03:20:09.330Z,8.76
2018-11-06T03:22:38.361Z,8.73
2018-11-06T03:25:07.675Z,8.73
2018-11-06T03:27:36.782Z,8.80
2018-11-06T03:30:08.239Z,8.73
2018-11-06T03:32:37.516Z,8.77
2018-11-06T03:35:07.533Z,8.77
2018-11-06T03:37:37.614Z,8.81
2018-11-06T03:40:07.110Z,8.83
2018-11-06T03:42:36.313Z,8.80
2018-11-06T03:45:05.865Z,8.83
2018-11-06T03:47:34.948Z,8.73
2018-11-06T03:50:04.029Z,8.76
2018-11-06T03:52:33.089Z,8.81
2018-11-06T03:55:03.026Z,8.81
2018-11-06T03:57:32.101Z,8.78
2018-11-06T04:00:01.815Z,8.73
2018-11-06T04:02:30.842Z,8.75
2018-11-06T04:04:59.907Z,8.80
2018-11-06T04:07:28.932Z,8.84
2018-11-06T04:09:57.975Z,8.89
2018-11-06T04:12:27.030Z,8.91
2018-11-06T04:14:56.083Z,8.87
2018-11-06T04:17:25.709Z,8.86
2018-11-06T04:19:54.779Z,8.84
2018-11-06T04:22:23.830Z,8.92
2018-11-06T04:24:52.882Z,8.94
2018-11-06T04:27:21.960Z,8.90
2018-11-06T04:29:51.003Z,8.89
2018-11-06T04:32:20.093Z,8.95
2018-11-06T04:34:49.170Z,8.96
2018-11-06T04:37:18.226Z,8.96
2018-11-06T04:39:47.275Z,8.91
2018-11-06T04:42:16.340Z,8.96
2018-11-06T04:44:45.383Z,9.03
2018-11-06T04:47:14.445Z,8.97
2018-11-06T04:49:43.496Z,8.93
2018-11-06T04:52:12.746Z,8.99
2018-11-06T04:54:41.797Z,9.05
2018-11-06T04:57:10.833Z,9.04
2018-11-06T04:59:39.901Z,8.95
2018-11-06T05:02:08.998Z,8.96
2018-11-06T05:04:38.010Z,9.08
2018-11-06T05:07:07.050Z,9.07
2018-11-06T05:09:36.067Z,8.98
2018-11-06T05:12:05.321Z,9.07
2018-11-06T05:14:34.342Z,9.00
2018-11-06T05:17:03.443Z,9.01
2018-11-06T05:19:32.492Z,9.05
2018-11-06T05:22:01.572Z,8.94
2018-11-06T05:24:30.609Z,8.94
2018-11-06T05:26:59.674Z,9.01
2018-11-06T05:29:28.695Z,9.01
2018-11-06T05:31:57.778Z,9.08
2018-11-06T05:34:26.867Z,9.06
2018-11-06T05:36:55.988Z,9.07
2018-11-06T05:39:25.093Z,9.12
2018-11-06T05:41:54.136Z,9.04
2018-11-06T05:44:23.170Z,9.12
2018-11-06T05:46:53.090Z,9.25
2018-11-06T05:49:22.141Z,9.18
2018-11-06T05:51:51.182Z,9.17
2018-11-06T05:54:20.202Z,9.07
2018-11-06T05:56:49.273Z,8.99
2018-11-06T05:59:18.345Z,9.14
2018-11-06T06:01:48.021Z,9.05
2018-11-06T06:04:17.401Z,9.11
2018-11-06T06:06:46.474Z,9.07
2018-11-06T06:09:16.380Z,9.07
2018-11-06T06:11:45.469Z,9.10
2018-11-06T06:14:15.004Z,9.19
2018-11-06T06:16:44.065Z,9.06
2018-11-06T06:19:13.152Z,9.03
2018-11-06T06:21:42.233Z,8.96
2018-11-06T06:24:11.384Z,8.87
2018-11-06T06:26:40.414Z,8.98
2018-11-06T06:29:09.478Z,9.05
2018-11-06T06:31:39.507Z,9.04
2018-11-06T06:34:08.659Z,9.01
2018-11-06T06:36:37.756Z,9.04
2018-11-06T06:39:08.381Z,9.01
2018-11-06T06:41:37.544Z,8.99
2018-11-06T06:44:06.845Z,8.99
2018-11-06T06:46:36.095Z,8.96
2018-11-06T06:49:05.204Z,8.95
2018-11-06T06:51:34.264Z,8.97
2018-11-06T06:54:03.438Z,8.91
2018-11-06T06:56:32.467Z,8.92
2018-11-06T06:59:01.492Z,8.89
2018-11-06T07:01:30.559Z,8.92
2018-11-06T07:04:00.621Z,8.90
2018-11-06T07:06:30.034Z,8.84
2018-11-06T07:08:59.070Z,8.88
2018-11-06T07:11:28.462Z,8.79
2018-11-06T07:13:57.534Z,8.77
2018-11-06T07:16:26.640Z,8.79
2018-11-06T07:18:55.748Z,8.82
2018-11-06T07:21:25.102Z,8.83
2018-11-06T07:26:52.536Z,8.85
2018-11-06T07:29:21.713Z,8.86
2018-11-06T07:31:53.732Z,8.82
2018-11-06T07:34:22.860Z,8.86
2018-11-06T07:36:51.977Z,8.88
2018-11-06T07:39:21.089Z,8.96
2018-11-06T07:41:50.125Z,8.98
2018-11-06T07:44:19.267Z,9.01
2018-11-06T07:46:48.405Z,9.05
2018-11-06T07:49:17.544Z,9.08
2018-11-06T07:51:46.597Z,9.06
2018-11-06T07:54:15.750Z,9.10
2018-11-06T07:56:44.818Z,9.14
2018-11-06T07:59:13.879Z,9.19
2018-11-06T08:01:43.218Z,9.27
2018-11-06T08:04:12.313Z,9.33
2018-11-06T08:06:41.357Z,9.36
2018-11-06T08:09:11.040Z,9.41
2018-11-06T08:11:40.750Z,9.43
2018-11-06T08:14:09.842Z,9.48
2018-11-06T08:16:39.055Z,9.50
2018-11-06T08:19:08.080Z,9.57
2018-11-06T08:21:38.920Z,9.58
2018-11-06T08:24:08.461Z,9.66
2018-11-06T08:26:37.547Z,9.69
2018-11-06T08:29:07.515Z,9.78
2018-11-06T08:31:36.847Z,9.85
2018-11-06T08:34:07.164Z,9.94
2018-11-06T08:36:36.338Z,10.01
2018-11-06T08:39:07.934Z,10.06
2018-11-06T08:41:37.857Z,10.12
2018-11-06T08:44:06.990Z,10.17
2018-11-06T08:46:36.092Z,10.20
2018-11-06T08:49:05.219Z,10.27
2018-11-06T08:51:35.832Z,10.32
2018-11-06T08:54:05.294Z,10.41
2018-11-06T08:56:35.350Z,10.48
2018-11-06T08:59:04.469Z,10.64
2018-11-06T09:01:33.556Z,11.00
2018-11-06T09:04:02.665Z,11.39
2018-11-06T09:06:31.711Z,11.75
2018-11-06T09:09:00.816Z,12.00
2018-11-06T09:11:29.840Z,12.26
2018-11-06T09:13:58.910Z,12.41
2018-11-06T09:16:27.953Z,12.74
2018-11-06T09:18:56.987Z,12.99
2018-11-06T09:21:26.038Z,13.26
2018-11-06T09:23:55.112Z,13.49
2018-11-06T09:26:24.189Z,13.84
2018-11-06T09:28:53.393Z,14.09
2018-11-06T09:31:22.445Z,14.13
2018-11-06T09:33:52.438Z,14.34
2018-11-06T09:36:21.478Z,14.50
2018-11-06T09:38:50.521Z,14.81
2018-11-06T09:41:19.622Z,14.99
2018-11-06T09:43:50.233Z,15.19
2018-11-06T09:46:19.246Z,15.37
2018-11-06T09:48:48.390Z,15.66
2018-11-06T09:51:17.408Z,15.64
2018-11-06T09:53:46.466Z,15.86
2018-11-06T09:56:16.359Z,15.95
2018-11-06T09:58:45.444Z,16.26
2018-11-06T10:01:14.534Z,16.40
2018-11-06T10:03:43.614Z,16.59
2018-11-06T10:06:12.753Z,16.48
2018-11-06T10:08:41.864Z,16.63
2018-11-06T10:11:10.893Z,16.69
2018-11-06T10:13:39.966Z,16.87
2018-11-06T10:16:09.021Z,16.57
2018-11-06T10:18:38.083Z,16.54
2018-11-06T10:21:07.265Z,16.54
2018-11-06T10:23:36.302Z,16.72
2018-11-06T10:26:05.636Z,16.51
2018-11-06T10:28:35.058Z,16.86
2018-11-06T10:31:04.155Z,16.89
2018-11-06T10:33:33.215Z,16.91
2018-11-06T10:36:02.344Z,16.65
2018-11-06T10:38:37.086Z,16.72
2018-11-06T10:41:06.162Z,16.88
2018-11-06T10:43:35.222Z,16.77
2018-11-06T10:46:04.331Z,16.71
2018-11-06T10:48:33.406Z,16.84
2018-11-06T10:51:04.423Z,16.83
2018-11-06T10:53:33.443Z,16.78
2018-11-06T10:56:02.562Z,16.71
2018-11-06T10:58:31.633Z,16.86
2018-11-06T11:01:05.895Z,16.74
2018-11-06T11:03:41.006Z,16.81
2018-11-06T11:06:10.085Z,16.79
2018-11-06T11:08:39.121Z,16.94
2018-11-06T11:11:09.722Z,17.02
2018-11-06T11:13:38.817Z,17.04
2018-11-06T11:16:08.016Z,17.12
2018-11-06T11:18:37.110Z,17.04
2018-11-06T11:21:06.682Z,17.11
2018-11-06T11:23:35.756Z,17.15
2018-11-06T11:26:04.834Z,17.27
2018-11-06T11:28:33.944Z,17.39
2018-11-06T11:31:02.995Z,17.47
2018-11-06T11:33:32.305Z,17.53
2018-11-06T11:36:01.409Z,17.65
2018-11-06T11:38:30.378Z,17.72
2018-11-06T11:40:59.482Z,17.78
2018-11-06T11:43:28.583Z,17.78
2018-11-06T11:45:57.715Z,17.88
2018-11-06T11:48:26.678Z,17.96
2018-11-06T11:50:55.803Z,18.20
2018-11-06T11:53:24.845Z,18.34
2018-11-06T11:55:53.866Z,18.35
2018-11-06T11:58:23.027Z,18.25
2018-11-06T12:00:52.093Z,18.30
2018-11-06T12:03:21.131Z,18.51
2018-11-06T12:05:50.158Z,18.68
2018-11-06T12:08:19.246Z,19.05
2018-11-06T12:10:48.309Z,19.29
2018-11-06T12:13:17.445Z,19.39
2018-11-06T12:15:46.490Z,19.53
2018-11-06T12:18:15.606Z,19.67
2018-11-06T12:20:44.711Z,19.59
2018-11-06T12:23:13.781Z,19.48
2018-11-06T12:25:43.015Z,19.37
2018-11-06T12:28:11.886Z,19.32
2018-11-06T12:30:41.005Z,19.26
2018-11-06T12:33:10.060Z,19.56
2018-11-06T12:35:39.164Z,19.68
2018-11-06T12:38:08.276Z,20.06
2018-11-06T12:40:37.337Z,20.05
2018-11-06T12:43:07.394Z,19.90
2018-11-06T12:45:36.466Z,20.19
2018-11-06T12:48:05.706Z,20.27
2018-11-06T12:50:34.901Z,20.18
2018-11-06T12:53:04.058Z,19.92
2018-11-06T12:55:33.150Z,19.95
2018-11-06T12:58:02.224Z,19.98
2018-11-06T13:00:32.128Z,20.02
2018-11-06T13:03:01.209Z,20.13
2018-11-06T13:05:30.279Z,20.02
2018-11-06T13:07:59.337Z,19.90
2018-11-06T13:10:28.412Z,19.94
2018-11-06T13:12:57.463Z,19.81
2018-11-06T13:15:26.616Z,19.86
2018-11-06T13:17:55.873Z,19.99
2018-11-06T13:20:24.994Z,19.79
2018-11-06T13:22:56.394Z,19.69
2018-11-06T13:25:26.510Z,19.82
2018-11-06T13:27:55.566Z,20.02
2018-11-06T13:30:24.677Z,19.92
2018-11-06T13:32:53.738Z,20.06
2018-11-06T13:35:23.813Z,20.03
2018-11-06T13:37:52.885Z,20.01
2018-11-06T13:40:22.014Z,20.05
2018-11-06T13:42:51.228Z,19.84
2018-11-06T13:45:23.139Z,19.85
2018-11-06T13:47:52.047Z,19.90
2018-11-06T13:50:21.830Z,19.96
2018-11-06T13:52:50.866Z,20.10
2018-11-06T13:55:19.902Z,19.96
2018-11-06T13:57:48.954Z,20.02
2018-11-06T14:00:19.349Z,19.99
2018-11-06T14:02:48.404Z,19.87
2018-11-06T14:05:17.692Z,19.95
2018-11-06T14:07:47.034Z,19.91
2018-11-06T14:10:16.403Z,19.92
2018-11-06T14:12:45.843Z,19.87
2018-11-06T14:15:14.993Z,19.47
2018-11-06T14:17:44.027Z,19.83
2018-11-06T14:20:14.375Z,19.83
2018-11-06T14:22:43.573Z,19.65
2018-11-06T14:25:12.689Z,19.58
2018-11-06T14:27:43.749Z,19.56
2018-11-06T14:30:15.693Z,19.45
2018-11-06T14:32:45.014Z,19.52
2018-11-06T14:35:15.227Z,19.36
2018-11-06T14:37:47.071Z,19.38
2018-11-06T14:40:16.685Z,19.29
2018-11-06T14:42:46.236Z,19.12
2018-11-06T14:45:16.723Z,19.17
2018-11-06T14:47:46.047Z,19.19
2018-11-06T14:50:15.258Z,19.10
2018-11-06T14:52:44.279Z,18.91
2018-11-06T14:55:14.662Z,18.89
2018-11-06T14:57:44.405Z,18.87
2018-11-06T15:00:19.103Z,18.75
2018-11-06T15:02:49.444Z,18.70
2018-11-06T15:05:19.266Z,18.64
2018-11-06T15:07:51.130Z,18.69
2018-11-06T15:10:20.223Z,18.58
2018-11-06T15:12:49.710Z,18.57
2018-11-06T15:15:18.742Z,18.39
2018-11-06T15:17:48.381Z,18.34
2018-11-06T15:20:19.008Z,18.36
2018-11-06T15:22:48.116Z,18.38
2018-11-06T15:25:17.934Z,18.25
2018-11-06T15:27:48.986Z,18.30
2018-11-06T15:30:19.103Z,18.29
2018-11-06T15:32:50.974Z,17.97
2018-11-06T15:35:21.339Z,17.95
2018-11-06T15:37:51.601Z,17.94
2018-11-06T15:40:21.854Z,17.99
2018-11-06T15:42:50.925Z,17.77
2018-11-06T15:45:20.498Z,17.75
2018-11-06T15:47:50.222Z,17.63
2018-11-06T15:50:20.331Z,17.61
2018-11-06T15:52:50.465Z,17.63
2018-11-06T15:55:19.868Z,17.41
2018-11-06T15:57:49.527Z,17.44
2018-11-06T16:00:22.869Z,17.46
2018-11-06T16:02:52.110Z,17.42
2018-11-06T16:05:21.503Z,17.31
2018-11-06T16:07:50.994Z,17.15
2018-11-06T16:10:21.354Z,17.21
2018-11-06T16:12:50.526Z,17.11
2018-11-06T16:15:40.875Z,17.06
2018-11-06T16:18:11.009Z,17.05
2018-11-06T16:20:50.416Z,17.05
2018-11-06T16:23:41.866Z,17.13
2018-11-06T16:26:14.954Z,16.85
2018-11-06T16:28:51.391Z,16.82
2018-11-06T16:31:40.821Z,16.71
2018-11-06T16:34:24.067Z,16.58
2018-11-06T16:36:55.816Z,16.69
2018-11-06T16:39:29.186Z,16.67
2018-11-06T16:42:10.895Z,16.65
2018-11-06T16:44:57.287Z,16.56
2018-11-06T16:47:36.457Z,16.51
2018-11-06T16:50:16.590Z,16.43
2018-11-06T16:52:51.443Z,16.47
2018-11-06T16:58:23.979Z,16.34
2018-11-06T17:01:05.073Z,16.28
2018-11-06T17:03:49.508Z,16.32
2018-11-06T17:09:07.454Z,16.33
2018-11-06T17:11:46.523Z,16.34
2018-11-06T17:14:18.180Z,16.08
2018-11-06T17:16:55.372Z,16.08
2018-11-06T17:22:14.069Z,16.17
2018-11-06T17:24:44.536Z,16.21
2018-11-06T17:27:13.955Z,16.12
2018-11-06T17:29:43.381Z,16.14
2018-11-06T17:32:14.531Z,16.07
2018-11-06T17:35:08.857Z,15.97
2018-11-06T17:51:43.038Z,15.69
2018-11-06T17:54:13.033Z,15.70
2018-11-06T17:56:42.463Z,15.62
2018-11-06T17:59:30.526Z,15.47
2018-11-06T18:02:07.664Z,15.53
2018-11-06T18:04:37.146Z,15.43
2018-11-06T18:07:07.146Z,15.42
2018-11-06T18:09:38.275Z,15.44
2018-11-06T18:12:09.458Z,15.36
2018-11-06T18:14:47.274Z,15.36
2018-11-06T18:17:20.006Z,15.37
2018-11-06T18:19:50.140Z,15.34
2018-11-06T18:22:20.375Z,15.26
2018-11-06T18:24:50.238Z,15.30
2018-11-06T18:27:19.442Z,15.30
2018-11-06T18:29:49.139Z,15.31
2018-11-06T18:32:18.404Z,15.24
2018-11-06T18:34:47.405Z,15.18
2018-11-06T18:37:16.625Z,15.18
2018-11-06T18:39:45.647Z,15.13
2018-11-06T18:42:15.857Z,15.08
2018-11-06T18:44:45.455Z,14.99
2018-11-06T18:47:14.568Z,14.91
2018-11-06T18:49:43.640Z,14.72
2018-11-06T18:52:12.724Z,14.76
2018-11-06T18:54:41.844Z,14.80
2018-11-06T18:57:11.530Z,14.69
2018-11-06T18:59:40.684Z,14.57
2018-11-06T19:02:13.899Z,14.64
2018-11-06T19:04:43.346Z,14.59
2018-11-06T19:07:12.486Z,14.61
2018-11-06T19:09:41.519Z,14.59
2018-11-06T19:12:10.862Z,14.63
2018-11-06T19:14:39.941Z,14.62
2018-11-06T19:17:09.259Z,14.58
2018-11-06T19:19:38.666Z,14.50
2018-11-06T19:22:08.235Z,14.41
2018-11-06T19:24:37.307Z,14.51
2018-11-06T19:27:08.693Z,14.51
2018-11-06T19:29:38.533Z,14.53
2018-11-06T19:32:08.071Z,14.58
2018-11-06T19:34:37.157Z,14.50
2018-11-06T19:37:06.721Z,14.49
2018-11-06T19:39:36.459Z,14.48
2018-11-06T19:42:05.929Z,14.35
2018-11-06T19:44:35.053Z,14.39
2018-11-06T19:47:04.164Z,14.37
2018-11-06T19:49:33.237Z,14.43
2018-11-06T19:52:02.341Z,14.33
2018-11-06T19:54:32.377Z,14.34
2018-11-06T19:57:01.365Z,14.26
2018-11-06T19:59:30.488Z,14.36
2018-11-06T20:01:59.756Z,14.31
2018-11-06T20:04:28.912Z,14.29
2018-11-06T20:06:57.975Z,14.29
2018-11-06T20:09:27.120Z,14.32
2018-11-06T20:11:56.270Z,14.23
2018-11-06T20:14:25.293Z,14.24
2018-11-06T20:16:54.357Z,14.22
2018-11-06T20:19:23.457Z,14.22
2018-11-06T20:21:53.245Z,14.25
2018-11-06T20:24:22.389Z,14.24
2018-11-06T20:26:51.465Z,14.19
2018-11-06T20:29:20.572Z,14.09
2018-11-06T20:31:49.688Z,14.10
2018-11-06T20:34:19.933Z,14.12
2018-11-06T20:36:49.032Z,13.97
2018-11-06T20:39:18.337Z,13.99
2018-11-06T20:41:47.503Z,14.04
2018-11-06T20:44:16.633Z,13.90
2018-11-06T20:46:46.417Z,13.85
2018-11-06T20:49:15.548Z,13.90
2018-11-06T20:51:44.608Z,13.78
2018-11-06T20:54:13.731Z,13.73
2018-11-06T20:56:42.823Z,13.85
2018-11-06T20:59:11.914Z,13.88
2018-11-06T21:01:41.037Z,13.87
2018-11-06T21:04:10.129Z,13.74
2018-11-06T21:06:39.260Z,13.83
2018-11-06T21:09:09.610Z,13.84
2018-11-06T21:11:39.667Z,13.87
2018-11-06T21:14:08.979Z,13.81
2018-11-06T21:19:30.552Z,13.74
2018-11-06T21:22:02.678Z,13.84
2018-11-06T21:24:31.823Z,13.70
2018-11-06T21:27:00.949Z,13.77
2018-11-06T21:29:29.895Z,13.74
2018-11-06T21:31:58.987Z,13.72
2018-11-06T21:34:28.034Z,13.76
2018-11-06T21:36:57.187Z,13.71
2018-11-06T21:39:26.377Z,13.62
2018-11-06T21:41:56.358Z,13.68
2018-11-06T21:44:25.426Z,13.69
2018-11-06T21:46:54.508Z,13.69
2018-11-06T21:49:23.639Z,13.59
2018-11-06T21:51:52.718Z,13.59
2018-11-06T21:54:21.770Z,13.58
2018-11-06T21:56:50.862Z,13.59
2018-11-06T21:59:19.921Z,13.60
2018-11-06T22:01:49.794Z,13.55
2018-11-06T22:04:18.862Z,13.53
2018-11-06T22:06:47.965Z,13.55
2018-11-06T22:09:17.014Z,13.57
2018-11-06T22:11:46.115Z,13.50
2018-11-06T22:14:15.681Z,13.50
2018-11-06T22:16:44.736Z,13.51
2018-11-06T22:19:13.774Z,13.48
2018-11-06T22:21:43.590Z,13.46
2018-11-06T22:24:12.586Z,13.44
2018-11-06T22:26:41.668Z,13.37
2018-11-06T22:29:11.381Z,13.40
2018-11-06T22:31:40.550Z,13.30
2018-11-06T22:34:09.562Z,13.39
2018-11-06T22:36:38.638Z,13.37
2018-11-06T22:39:09.237Z,13.38
2018-11-06T22:41:38.748Z,13.35
2018-11-06T22:44:08.109Z,13.36
2018-11-06T22:46:37.450Z,13.33
2018-11-06T22:49:06.976Z,13.33
2018-11-06T22:51:36.016Z,13.32
2018-11-06T22:54:06.263Z,13.24
2018-11-06T22:56:35.401Z,13.22
2018-11-06T22:59:04.513Z,13.19
2018-11-06T23:01:33.613Z,13.23
2018-11-06T23:04:02.655Z,13.25
2018-11-06T23:06:31.794Z,13.23
2018-11-06T23:09:00.786Z,13.18
2018-11-06T23:11:29.870Z,13.19
2018-11-06T23:13:58.939Z,13.20
2018-11-06T23:16:28.028Z,13.24
2018-11-06T23:18:58.136Z,13.09
2018-11-06T23:21:27.258Z,12.94
2018-11-06T23:23:56.352Z,13.13
2018-11-06T23:26:25.424Z,13.19
2018-11-06T23:28:54.468Z,13.08
2018-11-06T23:31:23.592Z,13.15
2018-11-06T23:33:57.568Z,13.13
2018-11-06T23:36:26.641Z,13.10
2018-11-06T23:38:55.717Z,13.06
2018-11-06T23:41:24.825Z,13.10
2018-11-06T23:43:53.904Z,12.98
2018-11-06T23:46:23.927Z,13.13
2018-11-06T23:48:53.020Z,13.01
2018-11-06T23:51:22.057Z,13.07
2018-11-06T23:53:51.153Z,13.07
2018-11-06T23:56:20.273Z,13.00
2018-11-06T23:58:49.321Z,13.08
